Time;durP1;ratioP1;P1;durP2;ratioP2;P2;SDS_P1;SDS_P2;PMS_P1;PMS_P2;Temp;Humidity;BMP_temperature;BMP_pressure;BME280_temperature;BME280_humidity;BME280_pressure;Samples;Min_cycle;Max_cycle;Signal;HPM_P1;HPM_P2
2023/06/16 00:01:09;;;;;;;;;;;19.70;40.60;;;15.77;66.01;95525.75;4935435;29;20005;-46
2023/06/16 00:03:36;;;;;;;;;;;19.80;40.70;;;15.86;66.74;95531.22;4934108;29;19933;-46
2023/06/16 00:06:04;;;;;;;;;;;19.80;40.70;;;15.91;66.70;95528.41;4935069;29;19921;-46
2023/06/16 00:08:33;;;;;;;;;;;19.80;41.40;;;15.95;65.25;95537.47;4935201;28;19910;-45
2023/06/16 00:10:59;;;;;;;;;;;19.80;40.80;;;16.00;64.55;95545.44;4931757;29;20009;-48
2023/06/16 00:13:25;;;;;;;;;;;19.80;40.80;;;16.03;65.49;95544.03;4931944;29;20001;-49
2023/06/16 00:15:51;;;;;;;;;;;19.90;40.80;;;16.05;68.25;95548.03;4933841;29;20296;-45
2023/06/16 00:18:17;;;;;;;;;;;19.90;40.90;;;16.02;71.21;95551.31;4935123;29;20005;-48
2023/06/16 00:20:43;;;;;;;;;;;19.90;41.10;;;16.04;71.13;95557.16;4934511;28;20021;-46
2023/06/16 00:23:11;;;;;;;;;;;19.80;41.30;;;15.95;71.68;95565.16;4934161;29;20381;-46
2023/06/16 00:25:37;;;;;;;;;;;19.80;41.50;;;15.92;72.07;95567.63;4935278;29;20009;-46
2023/06/16 00:28:02;;;;;;;;;;;19.80;41.90;;;15.92;71.69;95571.13;4934041;29;20005;-46
2023/06/16 00:30:28;;;;;;;;;;;19.70;42.00;;;15.94;74.67;95576.16;4934672;29;19911;-45
2023/06/16 00:32:54;;;;;;;;;;;19.70;42.10;;;15.91;75.33;95566.81;4934037;29;19918;-46
2023/06/16 00:35:20;;;;;;;;;;;19.60;42.20;;;15.85;74.67;95562.63;4934919;29;19918;-47
2023/06/16 00:37:46;;;;;;;;;;;19.50;42.30;;;15.79;77.65;95558.44;4949527;28;19910;-45
2023/06/16 00:40:11;;;;;;;;;;;19.50;42.60;;;15.69;81.86;95564.03;4933991;29;19918;-44
2023/06/16 00:42:37;;;;;;;;;;;19.40;42.80;;;15.32;84.99;95560.34;4934873;29;20262;-47
2023/06/16 00:45:03;;;;;;;;;;;19.30;43.00;;;15.15;86.02;95563.59;4933710;29;19910;-44
2023/06/16 00:47:31;;;;;;;;;;;19.20;43.30;;;15.15;86.36;95563.59;4934585;29;20017;-46
2023/06/16 00:49:57;;;;;;;;;;;19.10;43.50;;;15.15;85.73;95576.22;4949419;28;20277;-45
2023/06/16 00:52:30;;;;;;;;;;;19.00;43.80;;;15.09;87.21;95578.19;4952395;28;19910;-44
2023/06/16 00:54:56;;;;;;;;;;;19.00;44.00;;;14.98;89.08;95569.50;4938334;28;20009;-46
2023/06/16 00:57:22;;;;;;;;;;;18.90;44.30;;;14.87;89.71;95576.09;4952103;28;20009;-45
2023/06/16 00:59:48;;;;;;;;;;;18.90;44.50;;;14.80;92.24;95568.44;4938542;29;20441;-47
2023/06/16 01:02:14;;;;;;;;;;;18.80;44.70;;;14.80;89.87;95568.44;4938698;29;20005;-45
2023/06/16 01:04:41;;;;;;;;;;;18.80;45.00;;;14.77;88.06;95569.00;4937867;29;20282;-47
2023/06/16 01:07:40;;;;;;;;;;;18.70;45.00;;;14.79;88.77;95557.97;4938511;28;20029;-44
2023/06/16 01:10:18;;;;;;;;;;;18.70;45.30;;;14.72;90.66;95568.28;4952167;28;19910;-49
2023/06/16 01:13:06;;;;;;;;;;;18.60;45.50;;;14.68;92.07;95564.59;4952994;28;19911;-46
2023/06/16 01:15:34;;;;;;;;;;;18.60;45.70;;;14.68;95.10;95545.84;4945944;28;19961;-44
2023/06/16 01:18:01;;;;;;;;;;;18.50;45.90;;;14.50;97.48;95521.38;4936970;29;19934;-48
2023/06/16 01:20:53;;;;;;;;;;;18.50;46.20;;;14.38;99.77;95504.94;4938077;29;19914;-48
2023/06/16 01:24:01;;;;;;;;;;;18.40;46.40;;;14.04;98.86;95497.94;4937841;29;19925;-45
2023/06/16 01:26:35;;;;;;;;;;;18.30;46.50;;;14.02;97.45;95496.63;4938198;29;19914;-45
2023/06/16 01:29:06;;;;;;;;;;;18.20;46.80;;;14.05;98.11;95506.75;4951651;28;19911;-46
2023/06/16 01:31:34;;;;;;;;;;;18.10;47.00;;;14.07;96.78;95509.94;4938472;29;20433;-47
2023/06/16 01:34:02;;;;;;;;;;;18.00;47.10;;;14.08;97.21;95514.22;4950867;28;20009;-49
2023/06/16 01:36:31;;;;;;;;;;;18.00;47.30;;;14.06;96.17;95511.03;4952786;28;19945;-47
2023/06/16 01:39:02;;;;;;;;;;;18.00;47.40;;;14.13;99.40;95524.84;4936772;29;19911;-45
2023/06/16 01:41:29;;;;;;;;;;;18.00;47.60;;;14.08;99.40;95531.09;4938088;29;19917;-49
2023/06/16 01:43:56;;;;;;;;;;;17.90;47.70;;;13.97;99.82;95521.56;4937851;28;20284;-44
2023/06/16 01:46:24;;;;;;;;;;;17.80;47.70;;;13.91;100.00;95525.38;4935129;29;19914;-46
2023/06/16 01:48:52;;;;;;;;;;;17.80;47.90;;;13.83;100.00;95524.16;4937629;29;19911;-46
2023/06/16 01:51:19;;;;;;;;;;;17.70;48.00;;;13.79;100.00;95533.84;4936466;29;19911;-46
2023/06/16 01:53:45;;;;;;;;;;;17.70;48.30;;;13.74;100.00;95539.25;4937755;29;19910;-45
2023/06/16 01:56:11;;;;;;;;;;;17.60;48.40;;;13.61;100.00;95540.75;4937725;29;20001;-44
2023/06/16 01:58:38;;;;;;;;;;;17.60;48.60;;;13.56;100.00;95543.47;4936635;29;20300;-45
2023/06/16 02:01:13;;;;;;;;;;;17.50;48.70;;;13.55;100.00;95546.44;4937163;29;19929;-46
2023/06/16 02:03:50;;;;;;;;;;;17.50;48.90;;;13.50;100.00;95547.25;4950789;28;20701;-45
2023/06/16 02:06:30;;;;;;;;;;;17.50;49.10;;;13.45;100.00;95560.72;4951372;28;20468;-45
2023/06/16 02:09:02;;;;;;;;;;;17.40;49.20;;;13.39;100.00;95553.81;4950605;28;19938;-45
2023/06/16 02:11:29;;;;;;;;;;;17.40;50.00;;;13.36;100.00;95551.72;4951952;28;19960;-45
2023/06/16 02:13:56;;;;;;;;;;;17.40;49.50;;;13.34;100.00;95556.53;4937182;28;19918;-46
2023/06/16 02:16:21;;;;;;;;;;;17.40;49.70;;;13.32;100.00;95559.50;4948531;28;19915;-45
2023/06/16 02:18:49;;;;;;;;;;;17.30;49.80;;;13.30;100.00;95558.19;4936423;29;20379;-47
2023/06/16 02:21:16;;;;;;;;;;;17.30;49.90;;;13.30;100.00;95563.53;4935227;29;19932;-45
2023/06/16 02:23:42;;;;;;;;;;;17.30;50.00;;;13.29;100.00;95567.28;4936144;29;19930;-45
2023/06/16 02:26:07;;;;;;;;;;;17.30;50.20;;;13.26;100.00;95557.94;4935762;28;19910;-46
2023/06/16 02:28:33;;;;;;;;;;;17.30;50.30;;;13.26;100.00;95554.47;4935247;29;19949;-45
2023/06/16 02:30:59;;;;;;;;;;;17.30;50.40;;;13.18;100.00;95561.19;4936002;29;20469;-45
2023/06/16 02:33:24;;;;;;;;;;;17.30;50.50;;;13.20;100.00;95567.88;4935392;29;19918;-51
2023/06/16 02:35:50;;;;;;;;;;;17.30;50.60;;;13.19;100.00;95565.47;4935742;29;19911;-48
2023/06/16 02:38:16;;;;;;;;;;;17.30;50.80;;;13.17;100.00;95562.28;4936255;29;19910;-46
2023/06/16 02:40:42;;;;;;;;;;;17.30;50.90;;;13.21;100.00;95571.34;4935080;29;19922;-46
2023/06/16 02:43:07;;;;;;;;;;;17.30;51.00;;;13.23;100.00;95568.38;4950689;28;19917;-47
2023/06/16 02:45:33;;;;;;;;;;;17.20;51.10;;;13.24;100.00;95569.97;4934757;28;19910;-45
2023/06/16 02:47:59;;;;;;;;;;;17.20;51.20;;;13.24;100.00;95578.00;4936337;29;19910;-48
2023/06/16 02:50:24;;;;;;;;;;;17.30;51.30;;;13.18;100.00;95566.53;4935995;28;19910;-44
2023/06/16 02:52:51;;;;;;;;;;;17.30;51.40;;;13.13;100.00;95580.78;4934847;29;20357;-46
2023/06/16 02:55:18;;;;;;;;;;;17.20;51.50;;;13.18;100.00;95578.03;4935941;29;20286;-49
2023/06/16 02:57:44;;;;;;;;;;;17.30;51.70;;;13.11;100.00;95582.91;4934912;28;19917;-46
2023/06/16 03:00:11;;;;;;;;;;;17.30;51.70;;;13.16;100.00;95582.88;4935490;29;19915;-45
2023/06/16 03:02:37;;;;;;;;;;;17.30;51.80;;;13.16;100.00;95582.88;4935693;29;19917;-46
2023/06/16 03:05:04;;;;;;;;;;;17.20;51.90;;;13.15;100.00;95585.81;4934738;29;20341;-46
2023/06/16 03:07:35;;;;;;;;;;;17.20;52.00;;;13.15;100.00;95583.94;4935055;28;19915;-45
2023/06/16 03:10:03;;;;;;;;;;;17.20;52.00;;;13.14;100.00;95581.56;4934832;28;19950;-49
2023/06/16 03:12:28;;;;;;;;;;;17.20;52.10;;;13.10;100.00;95588.53;4934622;28;19957;-48
2023/06/16 03:14:54;;;;;;;;;;;17.20;52.20;;;13.08;100.00;95577.34;4934011;29;20593;-46
2023/06/16 03:17:20;;;;;;;;;;;17.10;52.20;;;13.02;100.00;95576.56;4934764;29;19944;-46
2023/06/16 03:19:50;;;;;;;;;;;17.10;52.30;;;12.97;100.00;95573.94;4950020;28;19914;-46
2023/06/16 03:22:16;;;;;;;;;;;17.10;52.40;;;12.85;100.00;95574.31;4933670;29;20029;-45
2023/06/16 03:24:43;;;;;;;;;;;17.00;52.40;;;12.84;100.00;95575.34;4935019;29;20017;-47
2023/06/16 03:27:10;;;;;;;;;;;17.00;52.50;;;12.81;100.00;95581.25;4933528;28;19918;-51
2023/06/16 03:29:37;;;;;;;;;;;16.90;52.60;;;12.80;100.00;95576.22;4935157;28;20005;-52
2023/06/16 03:32:06;;;;;;;;;;;16.90;52.70;;;12.76;100.00;95577.84;4935249;29;19914;-51
2023/06/16 03:34:32;;;;;;;;;;;16.90;52.80;;;12.69;100.00;95578.97;4933663;29;19921;-53
2023/06/16 03:36:58;;;;;;;;;;;16.80;52.80;;;12.68;100.00;95588.03;4934800;29;19910;-51
2023/06/16 03:39:24;;;;;;;;;;;16.90;53.00;;;12.67;100.00;95585.66;4933603;28;20032;-52
2023/06/16 03:41:51;;;;;;;;;;;16.80;53.00;;;12.62;100.00;95586.47;4934808;29;20029;-52
2023/06/16 03:44:17;;;;;;;;;;;16.80;53.00;;;12.59;100.00;95581.69;4934846;29;20293;-49
2023/06/16 03:46:43;;;;;;;;;;;16.80;53.20;;;12.59;100.00;95589.69;4933101;29;19918;-47
2023/06/16 03:49:08;;;;;;;;;;;16.70;53.20;;;12.62;100.00;95586.47;4934863;28;20109;-48
2023/06/16 03:51:34;;;;;;;;;;;16.70;53.30;;;12.59;100.00;95587.03;4933008;29;19910;-46
2023/06/16 03:54:00;;;;;;;;;;;16.70;53.50;;;12.53;100.00;95590.78;4934707;29;19954;-46
2023/06/16 03:56:26;;;;;;;;;;;16.70;53.50;;;12.55;100.00;95593.22;4949096;28;19938;-50
2023/06/16 03:58:52;;;;;;;;;;;16.70;53.60;;;12.54;100.00;95599.63;4943444;28;19915;-51
2023/06/16 04:01:22;;;;;;;;;;;16.70;53.60;;;12.53;100.00;95603.34;4934595;29;19940;-48
2023/06/16 04:03:50;;;;;;;;;;;16.70;53.60;;;12.50;100.00;95599.38;4932712;29;26775;-51
2023/06/16 04:06:17;;;;;;;;;;;16.70;53.70;;;12.45;100.00;95597.53;4934120;29;19917;-48
2023/06/16 04:08:44;;;;;;;;;;;16.60;53.70;;;12.46;100.00;95596.44;4934413;29;19922;-49
2023/06/16 04:11:10;;;;;;;;;;;16.60;53.80;;;12.45;100.00;95597.53;4931668;28;20705;-48
2023/06/16 04:13:36;;;;;;;;;;;16.60;53.80;;;12.47;100.00;95599.91;4934612;29;19910;-49
2023/06/16 04:16:02;;;;;;;;;;;16.60;53.90;;;12.54;100.00;95600.44;4933104;29;19917;-46
2023/06/16 04:18:28;;;;;;;;;;;16.60;54.00;;;12.70;100.00;95593.13;4949055;28;19953;-48
2023/06/16 04:20:54;;;;;;;;;;;16.70;54.10;;;12.85;100.00;95589.53;4933723;29;19920;-50
2023/06/16 04:23:20;;;;;;;;;;;16.70;54.10;;;13.00;100.00;95592.09;4933648;29;19918;-49
2023/06/16 04:25:46;;;;;;;;;;;16.80;54.20;;;13.10;100.00;95594.69;4928492;29;19922;-53
2023/06/16 04:28:14;;;;;;;;;;;16.90;54.30;;;13.20;100.00;95591.13;4931942;29;19937;-50
2023/06/16 04:30:42;;;;;;;;;;;17.00;54.30;;;13.17;100.00;95600.53;4934986;29;19910;-51
2023/06/16 04:33:08;;;;;;;;;;;17.00;54.30;;;13.24;100.00;95600.19;4934089;29;19919;-54
2023/06/16 04:35:34;;;;;;;;;;;17.10;54.30;;;13.28;100.00;95598.56;4935070;28;19910;-53
2023/06/16 04:38:03;;;;;;;;;;;17.20;54.40;;;13.32;100.00;95601.50;4934864;29;19925;-50
2023/06/16 04:40:30;;;;;;;;;;;17.20;54.30;;;13.35;100.00;95606.28;4934092;29;20393;-50
2023/06/16 04:42:56;;;;;;;;;;;17.40;54.40;;;13.58;100.00;95600.19;4920972;29;19910;-48
2023/06/16 04:45:22;;;;;;;;;;;17.50;54.30;;;13.76;100.00;95600.56;4934210;29;20487;-50
2023/06/16 04:47:50;;;;;;;;;;;17.60;54.30;;;13.93;100.00;95606.25;4935058;29;19943;-54
2023/06/16 04:50:16;;;;;;;;;;;17.80;54.30;;;14.16;100.00;95601.16;4934727;29;20000;-52
2023/06/16 04:52:44;;;;;;;;;;;17.90;54.20;;;14.43;100.00;95603.25;4933702;29;19973;-52
2023/06/16 04:55:10;;;;;;;;;;;18.10;54.20;;;14.50;100.00;95601.00;4935245;29;20005;-53
2023/06/16 04:57:36;;;;;;;;;;;18.30;54.20;;;14.43;100.00;95604.03;4933986;29;20065;-49
2023/06/16 05:00:07;;;;;;;;;;;18.40;54.70;;;14.48;100.00;95601.31;4934611;28;19925;-50
2023/06/16 05:02:33;;;;;;;;;;;18.50;54.00;;;14.45;100.00;95606.44;4934748;29;19961;-49
2023/06/16 05:05:01;;;;;;;;;;;18.50;53.90;;;14.45;100.00;95604.56;4933762;28;20008;-50
2023/06/16 05:07:27;;;;;;;;;;;18.60;53.90;;;14.39;100.00;95604.91;4934516;29;20278;-51
2023/06/16 05:09:52;;;;;;;;;;;18.60;53.90;;;14.36;100.00;95606.28;4940684;29;19917;-51
2023/06/16 05:12:18;;;;;;;;;;;18.60;53.80;;;14.46;100.00;95605.34;4930886;28;20444;-50
2023/06/16 05:14:44;;;;;;;;;;;18.70;53.80;;;14.52;100.00;95610.38;4926905;29;19911;-52
2023/06/16 05:17:10;;;;;;;;;;;18.80;53.80;;;14.59;99.81;95610.03;4933815;29;20290;-52
2023/06/16 05:19:36;;;;;;;;;;;18.80;53.80;;;14.84;100.00;95624.16;4934533;29;19914;-49
2023/06/16 05:22:02;;;;;;;;;;;19.00;53.80;;;15.12;99.65;95620.50;4933109;29;19918;-49
2023/06/16 05:24:28;;;;;;;;;;;19.30;53.70;;;15.44;97.71;95619.72;4929692;29;19919;-48
2023/06/16 05:26:54;;;;;;;;;;;19.50;53.60;;;15.85;95.61;95615.56;4933376;29;19937;-49
2023/06/16 05:29:20;;;;;;;;;;;19.90;53.60;;;16.24;89.76;95619.66;4934212;29;19918;-47
2023/06/16 05:31:45;;;;;;;;;;;20.30;53.40;;;16.50;83.48;95609.97;4934473;29;19914;-48
2023/06/16 05:34:11;;;;;;;;;;;20.60;53.20;;;16.68;86.77;95613.63;4941835;29;19918;-48
2023/06/16 05:36:37;;;;;;;;;;;20.80;53.00;;;16.85;82.34;95613.81;4935407;29;19910;-53
2023/06/16 05:39:05;;;;;;;;;;;21.00;52.80;;;17.13;81.87;95605.66;4937144;29;19910;-50
2023/06/16 05:41:31;;;;;;;;;;;21.30;52.40;;;17.31;78.51;95611.97;4935925;29;20393;-50
2023/06/16 05:43:58;;;;;;;;;;;21.60;52.10;;;17.51;75.89;95610.66;4936370;29;19910;-52
2023/06/16 05:46:24;;;;;;;;;;;21.80;51.80;;;17.67;74.59;95617.22;4931837;29;19918;-51
2023/06/16 05:48:50;;;;;;;;;;;22.10;51.40;;;17.93;73.54;95619.31;4935831;28;19926;-50
2023/06/16 05:51:15;;;;;;;;;;;22.40;51.10;;;17.99;69.88;95620.78;4945991;28;20317;-50
2023/06/16 05:53:41;;;;;;;;;;;22.60;50.70;;;18.23;71.09;95625.75;4937578;29;19914;-48
2023/06/16 05:56:07;;;;;;;;;;;22.70;50.30;;;18.30;70.38;95623.44;4937730;29;19915;-50
2023/06/16 05:58:35;;;;;;;;;;;22.90;50.10;;;18.27;71.69;95626.75;4951050;28;20313;-50
2023/06/16 06:01:03;;;;;;;;;;;22.90;50.00;;;18.26;70.33;95630.53;4937606;29;20073;-52
2023/06/16 06:03:29;;;;;;;;;;;22.90;49.80;;;18.19;71.23;95630.19;4934960;29;19918;-49
2023/06/16 06:05:56;;;;;;;;;;;22.80;49.70;;;18.10;72.83;95632.84;4937809;29;19910;-51
2023/06/16 06:08:27;;;;;;;;;;;22.70;49.60;;;18.09;74.00;95627.78;4937646;29;20289;-47
2023/06/16 06:10:54;;;;;;;;;;;22.80;49.40;;;18.30;73.49;95633.41;4936267;29;19918;-49
2023/06/16 06:13:21;;;;;;;;;;;23.00;49.80;;;18.49;69.15;95639.34;4935617;29;19910;-48
2023/06/16 06:15:47;;;;;;;;;;;23.20;49.00;;;18.77;67.67;95642.63;4935503;29;19918;-48
2023/06/16 06:18:13;;;;;;;;;;;23.50;48.80;;;19.08;68.63;95639.75;4937098;29;19921;-50
2023/06/16 06:20:39;;;;;;;;;;;23.70;48.60;;;19.31;66.39;95643.13;4936513;29;19914;-55
2023/06/16 06:23:06;;;;;;;;;;;24.00;48.30;;;19.30;64.51;95646.91;4934043;29;19910;-48
2023/06/16 06:25:32;;;;;;;;;;;24.20;48.00;;;19.35;65.87;95652.16;4950113;28;19925;-49
2023/06/16 06:27:58;;;;;;;;;;;24.50;47.70;;;19.60;63.94;95649.75;4932119;29;20346;-51
2023/06/16 06:30:25;;;;;;;;;;;24.70;47.30;;;19.86;62.72;95652.44;4937023;29;19910;-48
2023/06/16 06:32:51;;;;;;;;;;;24.90;47.00;;;20.16;64.13;95650.59;4937168;29;20020;-48
2023/06/16 06:35:17;;;;;;;;;;;25.20;46.70;;;20.45;61.80;95649.03;4936001;29;20008;-52
2023/06/16 06:37:43;;;;;;;;;;;25.30;46.50;;;20.71;60.78;95659.75;4937051;29;19916;-48
2023/06/16 06:40:09;;;;;;;;;;;25.70;46.40;;;20.99;62.40;95654.66;4935775;29;20409;-50
2023/06/16 06:42:35;;;;;;;;;;;25.90;46.20;;;21.18;58.65;95649.56;4931558;29;19914;-54
2023/06/16 06:45:01;;;;;;;;;;;26.20;46.00;;;21.39;58.58;95643.38;4935784;29;19961;-49
2023/06/16 06:47:27;;;;;;;;;;;26.50;45.60;;;21.57;58.76;95649.44;4936061;29;19918;-49
2023/06/16 06:49:56;;;;;;;;;;;26.80;45.30;;;21.91;57.60;95643.69;4936402;29;20005;-48
2023/06/16 06:52:21;;;;;;;;;;;27.10;45.00;;;22.03;54.76;95652.94;4935549;28;20350;-50
2023/06/16 06:54:47;;;;;;;;;;;27.30;44.60;;;22.18;54.85;95652.34;4936821;29;19968;-48
2023/06/16 06:57:14;;;;;;;;;;;27.60;44.30;;;22.48;54.16;95658.38;4935085;29;20004;-49
2023/06/16 06:59:43;;;;;;;;;;;27.80;44.60;;;22.66;52.15;95661.66;4935817;29;19914;-49
2023/06/16 07:02:09;;;;;;;;;;;28.10;43.70;;;22.93;51.83;95659.34;4936881;29;20017;-50
2023/06/16 07:04:38;;;;;;;;;;;28.30;43.20;;;23.02;51.28;95669.00;4935172;29;19918;-51
2023/06/16 07:07:05;;;;;;;;;;;28.50;42.80;;;23.12;49.84;95673.16;4936360;29;19970;-50
2023/06/16 07:09:30;;;;;;;;;;;28.60;42.40;;;23.15;49.47;95667.03;4935384;29;19984;-51
2023/06/16 07:11:57;;;;;;;;;;;28.80;42.20;;;23.37;48.67;95675.81;4936435;29;19958;-49
2023/06/16 07:14:22;;;;;;;;;;;29.00;41.90;;;23.59;51.64;95671.78;4950859;28;19954;-48
2023/06/16 07:16:48;;;;;;;;;;;29.20;41.70;;;23.63;51.88;95678.09;4935290;29;19949;-52
2023/06/16 07:19:14;;;;;;;;;;;29.40;41.40;;;23.86;50.33;95679.19;4936246;29;20345;-51
2023/06/16 07:21:40;;;;;;;;;;;29.60;41.10;;;23.89;48.61;95680.41;4939935;28;19956;-55
2023/06/16 07:24:06;;;;;;;;;;;29.80;41.60;;;24.14;48.25;95691.97;4938309;28;20369;-49
2023/06/16 07:26:32;;;;;;;;;;;30.00;40.70;;;24.20;45.06;95691.34;4936205;28;20013;-51
2023/06/16 07:29:00;;;;;;;;;;;30.20;40.50;;;24.60;44.59;95687.72;4934591;29;20341;-50
2023/06/16 07:31:26;;;;;;;;;;;30.50;40.20;;;24.67;45.85;95692.53;4936207;29;20397;-50
2023/06/16 07:33:51;;;;;;;;;;;30.70;39.90;;;24.58;45.88;95689.22;4935000;29;20419;-50
2023/06/16 07:36:17;;;;;;;;;;;30.90;39.60;;;24.91;45.51;95696.97;4935621;29;20017;-49
2023/06/16 07:38:43;;;;;;;;;;;31.20;39.20;;;25.05;45.17;95697.31;4936049;28;19910;-49
2023/06/16 07:41:09;;;;;;;;;;;31.30;38.90;;;25.34;44.08;95698.75;4934942;29;19968;-49
2023/06/16 07:43:35;;;;;;;;;;;31.50;38.60;;;25.29;44.73;95690.88;4935426;28;19914;-52
2023/06/16 07:46:01;;;;;;;;;;;31.50;38.50;;;24.86;45.07;95698.06;4934995;28;20266;-49
2023/06/16 07:48:27;;;;;;;;;;;31.40;38.60;;;24.68;44.79;95694.91;4935807;29;19910;-50
2023/06/16 07:50:53;;;;;;;;;;;31.40;38.20;;;24.86;44.52;95691.81;4935557;28;19910;-49
2023/06/16 07:53:22;;;;;;;;;;;31.40;37.90;;;24.79;44.21;95691.63;4921944;29;20021;-49
2023/06/16 07:55:48;;;;;;;;;;;31.60;38.20;;;25.38;44.01;95685.22;4935655;28;20321;-50
2023/06/16 07:58:14;;;;;;;;;;;31.70;37.40;;;25.68;42.74;95685.44;4934409;29;19918;-53
2023/06/16 08:00:40;;;;;;;;;;;32.00;37.40;;;25.82;43.63;95685.78;4935116;29;19961;-51
2023/06/16 08:03:06;;;;;;;;;;;32.20;37.20;;;26.17;42.66;95693.06;4934395;28;19910;-50
2023/06/16 08:05:31;;;;;;;;;;;32.50;37.10;;;26.46;42.99;95691.59;4935273;29;20424;-48
2023/06/16 08:07:57;;;;;;;;;;;32.70;36.80;;;26.62;42.32;95688.00;4935431;29;19953;-50
2023/06/16 08:10:23;;;;;;;;;;;33.00;36.50;;;26.63;41.58;95681.38;4934542;29;19910;-52
2023/06/16 08:12:51;;;;;;;;;;;33.20;36.90;;;26.72;41.06;95679.16;4935050;29;20028;-48
2023/06/16 08:15:17;;;;;;;;;;;33.40;35.90;;;26.99;41.75;95679.97;4934665;29;19910;-50
2023/06/16 08:17:43;;;;;;;;;;;33.60;35.80;;;27.20;39.16;95676.78;4935148;29;20285;-49
2023/06/16 08:20:11;;;;;;;;;;;33.90;35.50;;;27.39;40.54;95682.13;4935232;29;19914;-49
2023/06/16 08:22:37;;;;;;;;;;;34.10;35.20;;;27.68;37.79;95671.56;4933566;29;19910;-48
2023/06/16 08:25:05;;;;;;;;;;;34.40;35.10;;;28.01;38.53;95672.72;4934984;29;19925;-49
2023/06/16 08:27:30;;;;;;;;;;;34.70;34.70;;;28.05;39.00;95677.09;4948691;28;19931;-49
2023/06/16 08:29:57;;;;;;;;;;;34.70;34.40;;;27.86;37.20;95674.50;4935318;29;19910;-54
2023/06/16 08:32:23;;;;;;;;;;;34.80;34.20;;;27.65;37.59;95667.59;4949716;28;19917;-53
2023/06/16 08:34:48;;;;;;;;;;;34.90;33.90;;;27.86;38.15;95675.31;4933875;28;20284;-52
2023/06/16 08:37:15;;;;;;;;;;;35.00;33.70;;;28.06;38.12;95673.19;4934830;29;20312;-54
2023/06/16 08:39:44;;;;;;;;;;;35.00;33.40;;;28.34;37.92;95671.88;4933633;28;19914;-48
2023/06/16 08:42:11;;;;;;;;;;;35.20;33.30;;;28.59;36.27;95672.13;4922357;29;19917;-54
2023/06/16 08:44:40;;;;;;;;;;;35.30;33.00;;;28.94;36.22;95679.84;4949532;28;20289;-53
2023/06/16 08:47:08;;;;;;;;;;;35.40;32.80;;;29.02;35.09;95677.97;4933526;28;20370;-51
2023/06/16 08:49:33;;;;;;;;;;;35.50;32.50;;;29.08;35.48;95673.69;4934811;28;19917;-54
2023/06/16 08:52:03;;;;;;;;;;;35.80;32.30;;;29.23;35.12;95669.06;4933619;29;19910;-54
2023/06/16 08:54:48;;;;;;;;;;;35.90;32.00;;;29.34;32.68;95680.13;4934697;29;20005;-54
2023/06/16 08:57:17;;;;;;;;;;;36.10;31.90;;;29.37;33.64;95673.88;4946739;28;19946;-55
2023/06/16 08:59:47;;;;;;;;;;;36.20;31.30;;;29.27;33.71;95670.69;4949096;29;19914;-53
2023/06/16 09:02:12;;;;;;;;;;;36.20;31.00;;;29.50;31.37;95664.91;4934825;29;19910;-55
2023/06/16 09:04:41;;;;;;;;;;;36.20;30.80;;;29.57;32.55;95660.63;4933601;29;19910;-54
2023/06/16 09:07:07;;;;;;;;;;;36.30;30.60;;;29.92;33.64;95663.53;4934724;28;19914;-57
2023/06/16 09:09:33;;;;;;;;;;;36.40;30.40;;;30.13;31.54;95656.53;4933322;29;20404;-52
2023/06/16 09:12:03;;;;;;;;;;;36.60;30.30;;;30.16;29.87;95656.53;4935904;29;19911;-57
2023/06/16 09:14:31;;;;;;;;;;;36.70;30.00;;;30.05;29.82;95658.44;4937825;28;19910;-55
2023/06/16 09:16:59;;;;;;;;;;;36.80;29.90;;;30.44;29.36;95655.03;4937749;29;19911;-55
2023/06/16 09:19:26;;;;;;;;;;;37.00;29.80;;;30.65;28.98;95648.75;4938132;28;19969;-54
2023/06/16 09:21:56;;;;;;;;;;;37.20;29.40;;;30.76;29.09;95646.00;4937577;28;20011;-54
2023/06/16 09:24:27;;;;;;;;;;;37.30;29.30;;;30.79;28.99;95656.22;4938003;28;19925;-53
2023/06/16 09:27:00;;;;;;;;;;;37.50;29.10;;;31.08;27.85;95645.97;4952831;28;19918;-50
2023/06/16 09:29:28;;;;;;;;;;;37.70;29.00;;;31.32;27.13;95647.88;4947275;28;19950;-53
2023/06/16 09:32:06;;;;;;;;;;;37.80;28.80;;;31.69;25.77;95645.81;4937684;28;19910;-53
2023/06/16 09:34:32;;;;;;;;;;;38.10;28.70;;;31.55;27.13;95630.91;4937185;29;20377;-52
2023/06/16 09:36:58;;;;;;;;;;;38.30;28.40;;;31.77;27.25;95642.63;4937921;28;19910;-52
2023/06/16 09:39:26;;;;;;;;;;;38.40;28.20;;;32.02;27.22;95636.22;4937082;29;20367;-51
2023/06/16 09:41:53;;;;;;;;;;;38.50;28.10;;;32.01;26.20;95637.41;4938074;29;19914;-50
2023/06/16 09:44:31;;;;;;;;;;;38.70;27.90;;;32.15;26.16;95633.78;4933164;29;20025;-50
2023/06/16 09:47:01;;;;;;;;;;;38.70;27.50;;;32.08;25.37;95628.31;4935279;29;19994;-54
2023/06/16 09:49:27;;;;;;;;;;;38.80;27.50;;;31.91;25.39;95628.03;4936796;29;19917;-55
2023/06/16 09:51:56;;;;;;;;;;;38.90;27.30;;;32.40;25.22;95628.09;4936040;29;19910;-56
2023/06/16 09:54:25;;;;;;;;;;;39.00;27.10;;;32.68;23.14;95627.13;4937509;29;20408;-56
2023/06/16 09:56:55;;;;;;;;;;;39.10;26.80;;;33.03;21.86;95622.47;4937489;28;19911;-56
2023/06/16 09:59:23;;;;;;;;;;;39.30;26.70;;;33.11;21.75;95622.00;4951130;28;19964;-56
2023/06/16 10:01:53;;;;;;;;;;;39.60;26.50;;;33.08;20.22;95622.81;4937542;28;20014;-56
2023/06/16 10:04:22;;;;;;;;;;;39.80;26.10;;;32.64;21.57;95620.84;4950627;28;19917;-56
2023/06/16 10:06:56;;;;;;;;;;;39.90;25.90;;;32.09;20.91;95616.13;4937370;29;19914;-54
2023/06/16 10:09:30;;;;;;;;;;;39.70;25.70;;;31.72;21.50;95612.75;4936161;29;20354;-56
2023/06/16 10:11:57;;;;;;;;;;;39.40;25.60;;;31.69;22.43;95602.56;4952362;28;20287;-56
2023/06/16 10:14:31;;;;;;;;;;;39.30;25.40;;;32.18;21.85;95610.94;4951544;28;19917;-52
2023/06/16 10:16:58;;;;;;;;;;;39.50;25.30;;;32.05;22.95;95601.59;4936188;29;19911;-56
2023/06/16 10:19:25;;;;;;;;;;;39.50;25.10;;;31.89;23.73;95613.09;4951894;28;19910;-54
2023/06/16 10:21:53;;;;;;;;;;;39.20;25.10;;;31.49;23.87;95610.50;4935441;29;20405;-56
2023/06/16 10:24:19;;;;;;;;;;;38.80;25.20;;;31.25;24.29;95606.66;4937368;29;19925;-57
2023/06/16 10:26:47;;;;;;;;;;;38.40;25.20;;;30.87;25.21;95606.34;4937117;29;19923;-54
2023/06/16 10:29:16;;;;;;;;;;;37.80;25.20;;;31.01;26.24;95608.28;4947454;28;20400;-55
2023/06/16 10:31:44;;;;;;;;;;;37.60;25.30;;;30.73;26.69;95605.53;4937013;28;19945;-57
2023/06/16 10:34:19;;;;;;;;;;;37.30;25.40;;;30.64;25.15;95606.72;4935893;28;19917;-57
2023/06/16 10:36:48;;;;;;;;;;;37.10;25.50;;;30.68;24.73;95601.25;4936917;28;19910;-55
2023/06/16 10:39:15;;;;;;;;;;;37.10;25.30;;;30.40;25.32;95602.81;4950236;28;20005;-54
2023/06/16 10:41:57;;;;;;;;;;;36.90;25.30;;;30.70;23.48;95601.63;4933187;29;19917;-56
2023/06/16 10:44:29;;;;;;;;;;;37.00;25.20;;;30.79;20.88;95598.50;4936901;29;20330;-54
2023/06/16 10:47:15;;;;;;;;;;;37.20;25.00;;;31.06;21.84;95602.38;4930891;28;20013;-54
2023/06/16 10:49:51;;;;;;;;;;;37.60;24.60;;;31.35;20.52;95596.81;4934703;29;19997;-55
2023/06/16 10:52:28;;;;;;;;;;;37.90;24.50;;;31.46;21.18;95600.28;4935436;29;19910;-57
2023/06/16 10:55:14;;;;;;;;;;;38.30;24.10;;;31.68;20.60;95611.19;4936621;29;19911;-57
2023/06/16 10:57:43;;;;;;;;;;;38.60;23.80;;;32.20;20.90;95603.84;4935678;29;20354;-57
2023/06/16 11:00:14;;;;;;;;;;;38.90;23.50;;;32.14;20.63;95599.94;4936650;29;20289;-57
2023/06/16 11:02:51;;;;;;;;;;;39.20;23.30;;;32.37;20.33;95596.63;4936571;29;20005;-57
2023/06/16 11:05:21;;;;;;;;;;;39.40;23.20;;;32.70;19.87;95603.47;4935248;29;19911;-57
2023/06/16 11:08:02;;;;;;;;;;;39.70;23.10;;;32.99;20.93;95605.19;4936677;28;19918;-57
2023/06/16 11:10:28;;;;;;;;;;;40.20;23.00;;;33.33;20.30;95600.47;4935647;29;19917;-55
2023/06/16 11:12:54;;;;;;;;;;;40.60;22.70;;;33.15;20.38;95599.88;4936181;28;20296;-58
2023/06/16 11:15:20;;;;;;;;;;;41.00;22.20;;;32.70;20.34;95608.97;4934568;29;20028;-56
2023/06/16 11:17:51;;;;;;;;;;;41.10;21.90;;;33.35;20.45;95594.56;4932459;29;19910;-57